sensor_id;sensor_type;location;lat;lon;timestamp;pressure;altitude;pressure_sealevel;temperature;humidity
23679;BME280;12016;51.668;6.874;2022-08-01T00:04:09;101482.06;;;22.26;100.00
23679;BME280;12016;51.668;6.874;2022-08-01T00:10:13;101487.00;;;22.22;100.00
23679;BME280;12016;51.668;6.874;2022-08-01T00:16:16;101491.31;;;22.43;100.00
23679;BME280;12016;51.668;6.874;2022-08-01T00:22:18;101487.53;;;22.33;100.00
23679;BME280;12016;51.668;6.874;2022-08-01T00:28:20;101481.50;;;22.47;100.00
23679;BME280;12016;51.668;6.874;2022-08-01T00:34:22;101480.81;;;22.43;100.00
23679;BME280;12016;51.668;6.874;2022-08-01T00:40:24;101481.00;;;22.36;100.00
23679;BME280;12016;51.668;6.874;2022-08-01T00:46:26;101479.41;;;22.35;100.00
23679;BME280;12016;51.668;6.874;2022-08-01T00:52:28;101477.22;;;22.43;100.00
23679;BME280;12016;51.668;6.874;2022-08-01T00:58:30;101474.81;;;22.57;100.00
23679;BME280;12016;51.668;6.874;2022-08-01T01:04:33;101471.03;;;22.48;100.00
23679;BME280;12016;51.668;6.874;2022-08-01T01:10:48;101466.81;;;22.56;100.00
23679;BME280;12016;51.668;6.874;2022-08-01T01:16:54;101476.13;;;22.37;100.00
23679;BME280;12016;51.668;6.874;2022-08-01T01:29:43;101466.59;;;22.63;100.00
23679;BME280;12016;51.668;6.874;2022-08-01T01:35:47;101473.22;;;22.56;100.00
23679;BME280;12016;51.668;6.874;2022-08-01T01:41:53;101471.28;;;22.53;100.00
23679;BME280;12016;51.668;6.874;2022-08-01T01:47:56;101469.19;;;22.57;100.00
23679;BME280;12016;51.668;6.874;2022-08-01T01:53:59;101478.44;;;22.42;100.00
23679;BME280;12016;51.668;6.874;2022-08-01T02:00:03;101478.25;;;22.49;100.00
23679;BME280;12016;51.668;6.874;2022-08-01T02:06:10;101473.41;;;22.49;100.00
23679;BME280;12016;51.668;6.874;2022-08-01T02:12:16;101470.31;;;22.44;100.00
23679;BME280;12016;51.668;6.874;2022-08-01T02:18:19;101478.19;;;22.52;100.00
23679;BME280;12016;51.668;6.874;2022-08-01T02:24:36;101476.41;;;22.58;100.00
23679;BME280;12016;51.668;6.874;2022-08-01T02:30:42;101471.09;;;22.60;100.00
23679;BME280;12016;51.668;6.874;2022-08-01T02:36:46;101477.78;;;22.66;100.00
23679;BME280;12016;51.668;6.874;2022-08-01T02:42:50;101461.50;;;22.42;100.00
23679;BME280;12016;51.668;6.874;2022-08-01T02:48:55;101454.72;;;22.39;100.00
23679;BME280;12016;51.668;6.874;2022-08-01T02:55:00;101455.44;;;22.27;100.00
23679;BME280;12016;51.668;6.874;2022-08-01T03:01:08;101460.19;;;22.30;100.00
23679;BME280;12016;51.668;6.874;2022-08-01T03:07:12;101458.59;;;22.29;100.00
23679;BME280;12016;51.668;6.874;2022-08-01T03:13:15;101454.38;;;22.37;100.00
23679;BME280;12016;51.668;6.874;2022-08-01T03:19:20;101457.09;;;22.41;100.00
23679;BME280;12016;51.668;6.874;2022-08-01T03:25:25;101460.00;;;22.37;100.00
23679;BME280;12016;51.668;6.874;2022-08-01T03:31:30;101459.31;;;22.33;100.00
23679;BME280;12016;51.668;6.874;2022-08-01T03:37:42;101472.56;;;22.20;100.00
23679;BME280;12016;51.668;6.874;2022-08-01T03:44:13;101468.31;;;22.28;100.00
23679;BME280;12016;51.668;6.874;2022-08-01T03:50:16;101468.50;;;22.21;100.00
23679;BME280;12016;51.668;6.874;2022-08-01T03:56:22;101465.81;;;22.30;100.00
23679;BME280;12016;51.668;6.874;2022-08-01T04:02:26;101461.78;;;22.31;100.00
23679;BME280;12016;51.668;6.874;2022-08-01T04:08:36;101458.44;;;22.36;100.00
23679;BME280;12016;51.668;6.874;2022-08-01T04:14:38;101464.06;;;22.36;100.00
23679;BME280;12016;51.668;6.874;2022-08-01T04:20:40;101469.72;;;22.36;100.00
23679;BME280;12016;51.668;6.874;2022-08-01T04:26:43;101477.66;;;22.41;100.00
23679;BME280;12016;51.668;6.874;2022-08-01T04:32:47;101489.63;;;22.45;100.00
23679;BME280;12016;51.668;6.874;2022-08-01T04:38:55;101504.28;;;22.40;100.00
23679;BME280;12016;51.668;6.874;2022-08-01T04:44:59;101506.66;;;22.42;100.00
23679;BME280;12016;51.668;6.874;2022-08-01T04:51:02;101505.34;;;22.46;100.00
23679;BME280;12016;51.668;6.874;2022-08-01T04:57:05;101516.63;;;22.30;100.00
23679;BME280;12016;51.668;6.874;2022-08-01T05:03:07;101508.06;;;22.34;100.00
23679;BME280;12016;51.668;6.874;2022-08-01T05:09:12;101507.63;;;22.35;100.00
23679;BME280;12016;51.668;6.874;2022-08-01T05:15:13;101512.56;;;22.47;100.00
23679;BME280;12016;51.668;6.874;2022-08-01T05:21:16;101516.81;;;22.39;100.00
23679;BME280;12016;51.668;6.874;2022-08-01T05:27:22;101525.44;;;22.32;100.00
23679;BME280;12016;51.668;6.874;2022-08-01T05:33:24;101525.88;;;22.47;100.00
23679;BME280;12016;51.668;6.874;2022-08-01T05:39:26;101525.63;;;22.57;100.00
23679;BME280;12016;51.668;6.874;2022-08-01T05:45:28;101517.69;;;22.52;100.00
23679;BME280;12016;51.668;6.874;2022-08-01T05:51:30;101521.38;;;22.65;100.00
23679;BME280;12016;51.668;6.874;2022-08-01T05:57:32;101519.09;;;22.60;100.00
23679;BME280;12016;51.668;6.874;2022-08-01T06:03:34;101522.97;;;22.50;100.00
23679;BME280;12016;51.668;6.874;2022-08-01T06:09:36;101528.06;;;22.71;100.00
23679;BME280;12016;51.668;6.874;2022-08-01T06:15:38;101521.97;;;22.73;100.00
23679;BME280;12016;51.668;6.874;2022-08-01T06:21:40;101519.94;;;22.73;100.00
23679;BME280;12016;51.668;6.874;2022-08-01T06:27:44;101537.06;;;22.66;100.00
23679;BME280;12016;51.668;6.874;2022-08-01T06:33:46;101547.16;;;22.67;100.00
23679;BME280;12016;51.668;6.874;2022-08-01T06:39:55;101553.34;;;22.62;100.00
23679;BME280;12016;51.668;6.874;2022-08-01T06:46:02;101560.31;;;22.58;100.00
23679;BME280;12016;51.668;6.874;2022-08-01T06:52:04;101556.66;;;22.73;100.00
23679;BME280;12016;51.668;6.874;2022-08-01T06:58:06;101556.47;;;22.80;100.00
23679;BME280;12016;51.668;6.874;2022-08-01T07:04:08;101542.00;;;22.78;100.00
23679;BME280;12016;51.668;6.874;2022-08-01T07:10:10;101537.34;;;23.01;100.00
23679;BME280;12016;51.668;6.874;2022-08-01T07:16:13;101540.72;;;22.96;100.00
23679;BME280;12016;51.668;6.874;2022-08-01T07:22:18;101540.31;;;23.10;100.00
23679;BME280;12016;51.668;6.874;2022-08-01T07:28:20;101547.41;;;23.30;100.00
23679;BME280;12016;51.668;6.874;2022-08-01T07:34:23;101530.22;;;23.91;100.00
23679;BME280;12016;51.668;6.874;2022-08-01T07:40:25;101539.38;;;23.70;100.00
23679;BME280;12016;51.668;6.874;2022-08-01T07:46:27;101530.44;;;23.84;100.00
23679;BME280;12016;51.668;6.874;2022-08-01T07:52:31;101529.47;;;24.03;100.00
23679;BME280;12016;51.668;6.874;2022-08-01T07:58:33;101525.91;;;24.11;100.00
23679;BME280;12016;51.668;6.874;2022-08-01T08:04:37;101526.22;;;24.26;100.00
23679;BME280;12016;51.668;6.874;2022-08-01T08:10:39;101541.75;;;24.22;100.00
23679;BME280;12016;51.668;6.874;2022-08-01T08:16:42;101532.13;;;23.94;100.00
23679;BME280;12016;51.668;6.874;2022-08-01T08:22:44;101528.94;;;24.30;100.00
23679;BME280;12016;51.668;6.874;2022-08-01T08:28:46;101542.13;;;24.11;100.00
23679;BME280;12016;51.668;6.874;2022-08-01T08:34:47;101544.59;;;24.34;100.00
23679;BME280;12016;51.668;6.874;2022-08-01T08:40:49;101536.19;;;24.43;100.00
23679;BME280;12016;51.668;6.874;2022-08-01T08:46:52;101537.28;;;24.58;100.00
23679;BME280;12016;51.668;6.874;2022-08-01T08:52:55;101523.66;;;24.66;100.00
23679;BME280;12016;51.668;6.874;2022-08-01T08:59:05;101537.94;;;24.62;100.00
23679;BME280;12016;51.668;6.874;2022-08-01T09:05:07;101538.47;;;24.36;100.00
23679;BME280;12016;51.668;6.874;2022-08-01T09:11:10;101554.72;;;24.69;100.00
23679;BME280;12016;51.668;6.874;2022-08-01T09:17:16;101535.88;;;24.75;100.00
23679;BME280;12016;51.668;6.874;2022-08-01T09:23:39;101538.56;;;25.13;100.00
23679;BME280;12016;51.668;6.874;2022-08-01T09:29:45;101533.56;;;25.17;100.00
23679;BME280;12016;51.668;6.874;2022-08-01T09:35:55;101549.22;;;25.30;100.00
23679;BME280;12016;51.668;6.874;2022-08-01T09:42:00;101549.31;;;25.92;99.27
23679;BME280;12016;51.668;6.874;2022-08-01T09:48:08;101546.31;;;26.26;94.87
23679;BME280;12016;51.668;6.874;2022-08-01T09:54:28;101547.06;;;26.66;90.88
23679;BME280;12016;51.668;6.874;2022-08-01T10:00:33;101554.34;;;26.85;91.39
23679;BME280;12016;51.668;6.874;2022-08-01T10:06:49;101549.59;;;27.18;89.25
23679;BME280;12016;51.668;6.874;2022-08-01T10:12:55;101541.53;;;27.35;88.84
23679;BME280;12016;51.668;6.874;2022-08-01T10:18:57;101542.03;;;27.24;86.80
23679;BME280;12016;51.668;6.874;2022-08-01T10:25:03;101536.63;;;27.53;87.35
23679;BME280;12016;51.668;6.874;2022-08-01T10:31:07;101538.84;;;27.40;83.72
23679;BME280;12016;51.668;6.874;2022-08-01T10:37:09;101535.81;;;27.62;84.75
23679;BME280;12016;51.668;6.874;2022-08-01T10:43:12;101532.94;;;28.13;79.97
23679;BME280;12016;51.668;6.874;2022-08-01T10:49:17;101536.16;;;27.96;80.83
23679;BME280;12016;51.668;6.874;2022-08-01T10:55:23;101539.38;;;27.80;81.47
23679;BME280;12016;51.668;6.874;2022-08-01T11:01:29;101534.00;;;27.82;79.56
23679;BME280;12016;51.668;6.874;2022-08-01T11:07:43;101528.38;;;28.39;79.92
23679;BME280;12016;51.668;6.874;2022-08-01T11:20:16;101511.91;;;29.19;73.92
23679;BME280;12016;51.668;6.874;2022-08-01T11:26:19;101525.78;;;28.88;74.11
23679;BME280;12016;51.668;6.874;2022-08-01T11:32:26;101508.78;;;29.75;72.04
23679;BME280;12016;51.668;6.874;2022-08-01T11:38:28;101511.50;;;29.84;69.67
23679;BME280;12016;51.668;6.874;2022-08-01T11:44:48;101517.03;;;29.15;70.60
23679;BME280;12016;51.668;6.874;2022-08-01T11:50:50;101504.81;;;32.47;66.95
23679;BME280;12016;51.668;6.874;2022-08-01T11:56:58;101496.72;;;33.26;57.75
23679;BME280;12016;51.668;6.874;2022-08-01T12:03:05;101519.94;;;32.16;62.04
23679;BME280;12016;51.668;6.874;2022-08-01T12:09:18;101512.13;;;33.40;56.96
23679;BME280;12016;51.668;6.874;2022-08-01T12:15:22;101516.78;;;33.21;56.89
23679;BME280;12016;51.668;6.874;2022-08-01T12:21:24;101510.81;;;33.35;55.19
23679;BME280;12016;51.668;6.874;2022-08-01T12:27:30;101512.03;;;31.69;58.21
23679;BME280;12016;51.668;6.874;2022-08-01T12:33:32;101515.09;;;32.75;57.56
23679;BME280;12016;51.668;6.874;2022-08-01T12:39:36;101512.22;;;32.75;56.88
23679;BME280;12016;51.668;6.874;2022-08-01T12:45:40;101518.16;;;33.86;52.47
23679;BME280;12016;51.668;6.874;2022-08-01T12:51:44;101511.94;;;36.24;46.18
23679;BME280;12016;51.668;6.874;2022-08-01T12:57:48;101502.16;;;37.12;43.44
23679;BME280;12016;51.668;6.874;2022-08-01T13:03:59;101518.94;;;35.75;44.90
23679;BME280;12016;51.668;6.874;2022-08-01T13:10:03;101517.75;;;35.94;48.29
23679;BME280;12016;51.668;6.874;2022-08-01T13:16:07;101531.25;;;37.51;43.38
23679;BME280;12016;51.668;6.874;2022-08-01T13:22:09;101515.59;;;37.10;41.92
23679;BME280;12016;51.668;6.874;2022-08-01T13:28:19;101512.97;;;36.69;43.43
23679;BME280;12016;51.668;6.874;2022-08-01T13:34:33;101525.50;;;37.14;40.17
23679;BME280;12016;51.668;6.874;2022-08-01T13:40:35;101520.53;;;35.40;45.54
23679;BME280;12016;51.668;6.874;2022-08-01T13:46:38;101517.25;;;36.14;42.39
23679;BME280;12016;51.668;6.874;2022-08-01T13:52:41;101536.16;;;34.47;45.20
23679;BME280;12016;51.668;6.874;2022-08-01T13:58:43;101522.34;;;36.32;43.63
23679;BME280;12016;51.668;6.874;2022-08-01T14:04:45;101523.72;;;37.11;39.63
23679;BME280;12016;51.668;6.874;2022-08-01T14:10:48;101514.41;;;35.55;43.95
23679;BME280;12016;51.668;6.874;2022-08-01T14:16:49;101495.38;;;37.60;41.05
23679;BME280;12016;51.668;6.874;2022-08-01T14:22:52;101499.66;;;39.70;37.03
23679;BME280;12016;51.668;6.874;2022-08-01T14:28:54;101514.91;;;37.04;38.55
23679;BME280;12016;51.668;6.874;2022-08-01T14:34:56;101511.34;;;35.01;42.63
23679;BME280;12016;51.668;6.874;2022-08-01T14:40:58;101516.09;;;33.64;44.14
23679;BME280;12016;51.668;6.874;2022-08-01T14:47:01;101507.41;;;33.37;44.46
23679;BME280;12016;51.668;6.874;2022-08-01T14:53:02;101505.03;;;33.08;45.83
23679;BME280;12016;51.668;6.874;2022-08-01T14:59:04;101511.63;;;32.60;45.21
23679;BME280;12016;51.668;6.874;2022-08-01T15:05:07;101513.28;;;31.88;46.93
23679;BME280;12016;51.668;6.874;2022-08-01T15:11:10;101519.84;;;31.17;48.61
23679;BME280;12016;51.668;6.874;2022-08-01T15:17:11;101518.78;;;31.15;48.87
23679;BME280;12016;51.668;6.874;2022-08-01T15:23:13;101517.25;;;30.94;50.10
23679;BME280;12016;51.668;6.874;2022-08-01T15:29:16;101516.63;;;30.84;50.35
23679;BME280;12016;51.668;6.874;2022-08-01T15:35:18;101521.72;;;31.00;51.54
23679;BME280;12016;51.668;6.874;2022-08-01T15:41:20;101517.41;;;30.85;52.06
23679;BME280;12016;51.668;6.874;2022-08-01T15:47:22;101516.97;;;30.72;52.06
23679;BME280;12016;51.668;6.874;2022-08-01T15:53:24;101516.38;;;30.27;53.15
23679;BME280;12016;51.668;6.874;2022-08-01T15:59:26;101524.06;;;30.21;53.36
23679;BME280;12016;51.668;6.874;2022-08-01T16:05:28;101517.63;;;29.92;53.80
23679;BME280;12016;51.668;6.874;2022-08-01T16:11:30;101523.34;;;29.92;53.43
23679;BME280;12016;51.668;6.874;2022-08-01T16:17:32;101526.50;;;29.79;53.95
23679;BME280;12016;51.668;6.874;2022-08-01T16:23:34;101527.47;;;29.91;53.61
23679;BME280;12016;51.668;6.874;2022-08-01T16:29:36;101519.19;;;29.93;53.26
23679;BME280;12016;51.668;6.874;2022-08-01T16:35:38;101523.38;;;29.77;54.33
23679;BME280;12016;51.668;6.874;2022-08-01T16:41:40;101523.56;;;29.30;54.47
23679;BME280;12016;51.668;6.874;2022-08-01T16:47:42;101516.84;;;29.48;55.53
23679;BME280;12016;51.668;6.874;2022-08-01T16:53:45;101522.38;;;29.37;55.39
23679;BME280;12016;51.668;6.874;2022-08-01T16:59:47;101513.13;;;29.56;54.26
23679;BME280;12016;51.668;6.874;2022-08-01T17:05:49;101518.22;;;29.52;53.48
23679;BME280;12016;51.668;6.874;2022-08-01T17:11:51;101527.38;;;29.56;54.21
23679;BME280;12016;51.668;6.874;2022-08-01T17:17:54;101534.28;;;28.97;55.49
23679;BME280;12016;51.668;6.874;2022-08-01T17:23:56;101543.06;;;28.70;56.45
23679;BME280;12016;51.668;6.874;2022-08-01T17:29:58;101529.03;;;28.81;55.25
23679;BME280;12016;51.668;6.874;2022-08-01T17:36:00;101533.13;;;29.03;54.56
23679;BME280;12016;51.668;6.874;2022-08-01T17:42:02;101537.72;;;28.63;54.22
23679;BME280;12016;51.668;6.874;2022-08-01T17:48:03;101531.50;;;28.41;54.91
23679;BME280;12016;51.668;6.874;2022-08-01T17:54:05;101539.69;;;28.57;54.81
23679;BME280;12016;51.668;6.874;2022-08-01T18:00:08;101533.00;;;28.60;54.24
23679;BME280;12016;51.668;6.874;2022-08-01T18:06:11;101535.31;;;28.38;53.80
23679;BME280;12016;51.668;6.874;2022-08-01T18:12:20;101540.91;;;28.00;54.60
23679;BME280;12016;51.668;6.874;2022-08-01T18:18:21;101544.66;;;27.55;54.52
23679;BME280;12016;51.668;6.874;2022-08-01T18:24:23;101546.91;;;27.42;55.21
23679;BME280;12016;51.668;6.874;2022-08-01T18:30:25;101560.38;;;27.32;56.22
23679;BME280;12016;51.668;6.874;2022-08-01T18:36:28;101552.13;;;27.16;56.28
23679;BME280;12016;51.668;6.874;2022-08-01T18:42:29;101561.91;;;26.97;57.19
23679;BME280;12016;51.668;6.874;2022-08-01T18:48:31;101569.19;;;26.80;57.45
23679;BME280;12016;51.668;6.874;2022-08-01T18:54:33;101568.88;;;26.69;58.36
23679;BME280;12016;51.668;6.874;2022-08-01T19:00:35;101563.75;;;26.55;58.13
23679;BME280;12016;51.668;6.874;2022-08-01T19:06:37;101565.28;;;26.38;58.71
23679;BME280;12016;51.668;6.874;2022-08-01T19:12:39;101580.50;;;26.13;59.69
23679;BME280;12016;51.668;6.874;2022-08-01T19:18:42;101582.09;;;25.93;60.29
23679;BME280;12016;51.668;6.874;2022-08-01T19:24:44;101591.78;;;25.74;62.81
23679;BME280;12016;51.668;6.874;2022-08-01T19:30:46;101599.72;;;25.57;62.83
23679;BME280;12016;51.668;6.874;2022-08-01T19:36:50;101601.66;;;25.38;64.69
23679;BME280;12016;51.668;6.874;2022-08-01T19:42:55;101617.16;;;25.12;65.64
23679;BME280;12016;51.668;6.874;2022-08-01T19:48:57;101621.06;;;24.93;67.03
23679;BME280;12016;51.668;6.874;2022-08-01T19:55:00;101635.72;;;24.79;68.51
23679;BME280;12016;51.668;6.874;2022-08-01T20:01:11;101630.84;;;24.67;69.65
23679;BME280;12016;51.668;6.874;2022-08-01T20:07:15;101639.69;;;24.44;70.07
23679;BME280;12016;51.668;6.874;2022-08-01T20:13:16;101648.75;;;24.14;71.28
23679;BME280;12016;51.668;6.874;2022-08-01T20:19:21;101658.72;;;24.06;71.47
23679;BME280;12016;51.668;6.874;2022-08-01T20:25:29;101658.22;;;23.95;72.95
23679;BME280;12016;51.668;6.874;2022-08-01T20:31:38;101663.38;;;23.84;73.41
23679;BME280;12016;51.668;6.874;2022-08-01T20:37:41;101658.50;;;23.72;73.99
23679;BME280;12016;51.668;6.874;2022-08-01T20:43:44;101654.47;;;23.57;74.70
23679;BME280;12016;51.668;6.874;2022-08-01T20:49:46;101653.09;;;23.49;75.29
23679;BME280;12016;51.668;6.874;2022-08-01T20:55:51;101651.81;;;23.37;76.25
23679;BME280;12016;51.668;6.874;2022-08-01T21:02:22;101660.75;;;23.20;78.05
23679;BME280;12016;51.668;6.874;2022-08-01T21:08:42;101663.25;;;23.02;78.11
23679;BME280;12016;51.668;6.874;2022-08-01T21:15:38;101657.16;;;22.87;79.00
23679;BME280;12016;51.668;6.874;2022-08-01T21:21:47;101668.88;;;22.69;79.02
23679;BME280;12016;51.668;6.874;2022-08-01T21:28:04;101676.09;;;22.38;79.78
23679;BME280;12016;51.668;6.874;2022-08-01T21:34:09;101674.09;;;22.19;80.29
23679;BME280;12016;51.668;6.874;2022-08-01T21:40:17;101679.91;;;22.12;80.54
23679;BME280;12016;51.668;6.874;2022-08-01T21:46:20;101679.31;;;22.01;81.53
23679;BME280;12016;51.668;6.874;2022-08-01T21:52:25;101684.53;;;21.83;82.51
23679;BME280;12016;51.668;6.874;2022-08-01T21:58:31;101673.03;;;21.74;82.44
23679;BME280;12016;51.668;6.874;2022-08-01T22:05:09;101679.31;;;21.62;83.30
23679;BME280;12016;51.668;6.874;2022-08-01T22:11:13;101687.63;;;21.49;82.93
23679;BME280;12016;51.668;6.874;2022-08-01T22:17:20;101687.09;;;21.35;83.58
23679;BME280;12016;51.668;6.874;2022-08-01T22:23:23;101695.25;;;21.29;83.98
23679;BME280;12016;51.668;6.874;2022-08-01T22:29:30;101703.47;;;21.20;83.75
23679;BME280;12016;51.668;6.874;2022-08-01T22:35:35;101698.16;;;21.03;83.52
23679;BME280;12016;51.668;6.874;2022-08-01T22:41:42;101697.72;;;20.78;84.80
23679;BME280;12016;51.668;6.874;2022-08-01T22:54:12;101686.00;;;20.56;84.98
23679;BME280;12016;51.668;6.874;2022-08-01T23:00:15;101698.94;;;20.54;85.33
23679;BME280;12016;51.668;6.874;2022-08-01T23:06:23;101689.44;;;20.44;85.64
23679;BME280;12016;51.668;6.874;2022-08-01T23:12:28;101692.03;;;20.28;86.36
23679;BME280;12016;51.668;6.874;2022-08-01T23:18:31;101674.53;;;20.13;85.25
23679;BME280;12016;51.668;6.874;2022-08-01T23:24:33;101671.19;;;19.95;86.76
23679;BME280;12016;51.668;6.874;2022-08-01T23:30:36;101674.00;;;19.95;85.38
23679;BME280;12016;51.668;6.874;2022-08-01T23:36:38;101679.00;;;19.81;86.74
23679;BME280;12016;51.668;6.874;2022-08-01T23:42:40;101685.41;;;19.81;87.06
23679;BME280;12016;51.668;6.874;2022-08-01T23:48:41;101684.25;;;19.79;87.14
23679;BME280;12016;51.668;6.874;2022-08-01T23:54:43;101675.06;;;19.75;86.91
